Map

Track Data

SID SEASON NUMBER BASIN SUBBASIN NAME ISO_TIME NATURE LAT LON WMO_WIND WMO_PRES WMO_AGENCY TRACK_TYPE DIST2LAND LANDFALL IFLAG USA_AGENCY USA_ATCF_ID USA_LAT USA_LON USA_RECORD USA_STATUS USA_WIND USA_PRES USA_SSHS USA_R34_NE USA_R34_SE USA_R34_SW USA_R34_NW USA_R50_NE USA_R50_SE USA_R50_SW USA_R50_NW USA_R64_NE USA_R64_SE USA_R64_SW USA_R64_NW USA_POCI USA_ROCI USA_RMW USA_EYE TOKYO_LAT TOKYO_LON TOKYO_GRADE TOKYO_WIND TOKYO_PRES TOKYO_R50_DIR TOKYO_R50_LONG TOKYO_R50_SHORT TOKYO_R30_DIR TOKYO_R30_LONG TOKYO_R30_SHORT TOKYO_LAND CMA_LAT CMA_LON CMA_CAT CMA_WIND CMA_PRES HKO_LAT HKO_LON HKO_CAT HKO_WIND HKO_PRES NEWDELHI_LAT NEWDELHI_LON NEWDELHI_GRADE NEWDELHI_WIND NEWDELHI_PRES NEWDELHI_CI NEWDELHI_DP NEWDELHI_POCI REUNION_LAT REUNION_LON REUNION_TYPE REUNION_WIND REUNION_PRES REUNION_TNUM REUNION_CI REUNION_RMW REUNION_R34_NE REUNION_R34_SE REUNION_R34_SW REUNION_R34_NW REUNION_R50_NE REUNION_R50_SE REUNION_R50_SW REUNION_R50_NW REUNION_R64_NE REUNION_R64_SE REUNION_R64_SW REUNION_R64_NW BOM_LAT BOM_LON BOM_TYPE BOM_WIND BOM_PRES BOM_TNUM BOM_CI BOM_RMW BOM_R34_NE BOM_R34_SE BOM_R34_SW BOM_R34_NW BOM_R50_NE BOM_R50_SE BOM_R50_SW BOM_R50_NW BOM_R64_NE BOM_R64_SE BOM_R64_SW BOM_R64_NW BOM_ROCI BOM_POCI BOM_EYE BOM_POS_METHOD BOM_PRES_METHOD NADI_LAT NADI_LON NADI_CAT NADI_WIND NADI_PRES WELLINGTON_LAT WELLINGTON_LON WELLINGTON_WIND WELLINGTON_PRES DS824_LAT DS824_LON DS824_STAGE DS824_WIND DS824_PRES TD9636_LAT TD9636_LON TD9636_STAGE TD9636_WIND TD9636_PRES TD9635_LAT TD9635_LON TD9635_WIND TD9635_PRES TD9635_ROCI NEUMANN_LAT NEUMANN_LON NEUMANN_CLASS NEUMANN_WIND NEUMANN_PRES MLC_LAT MLC_LON MLC_CLASS MLC_WIND MLC_PRES USA_GUST BOM_GUST BOM_GUST_PER REUNION_GUST REUNION_GUST_PER USA_SEAHGT USA_SEARAD_NE USA_SEARAD_SE USA_SEARAD_SW USA_SEARAD_NW STORM_SPEED STORM_DIR
1961003S19147 1961 3 SP EA NOT_NAMED 1961-01-02 23:00:00 NR -18.6000 146.500 999 bom main 21 21 ______O_______ -1 -18.6000 146.500 999 8 112
1961003S19147 1961 3 SP EA NOT_NAMED 1961-01-03 00:00:00 TS -18.6524 146.631 main 31 31 O_____P__O__O_ jtwc_sh SH111961 -18.6000 146.600 -1 -18.7071 146.593 998 -18.7000 146.700 TC 30 999 -18.6000 146.700 TC 30 999 10 111
1961003S19147 1961 3 SP EA NOT_NAMED 1961-01-03 03:00:00 TS -18.8478 147.187 main 59 49 P_____P__P__P_ SH111961 -18.7507 147.320 -1 -18.9983 146.926 998 -18.8346 147.364 TC 31 998 -18.8297 147.137 TC 32 998 12 107
1961003S19147 1961 3 SP EA NOT_NAMED 1961-01-03 06:00:00 TS -18.9990 147.811 main 61 61 O_____P__P__O_ jtwc_sh SH111961 -18.9000 148.000 -1 -19.1804 147.460 997 -18.9542 148.014 TC 32 998 -19.0000 147.700 TC 35 997 13 101
1961003S19147 1961 3 SP EA NOT_NAMED 1961-01-03 08:00:00 TS -19.0553 148.290 997 bom main 94 94 P_____O__P__P_ SH111961 -18.9997 148.416 -1 -19.2000 148.000 997 -19.0197 148.430 TC 33 997 -19.0575 148.188 TC 35 997 14 97
1961003S19147 1961 3 SP EA NOT_NAMED 1961-01-03 09:00:00 TS -19.0784 148.529 main 102 102 P_____P__P__P_ SH111961 -19.0497 148.615 -1 -19.1729 148.334 997 -19.0468 148.631 TC 33 997 -19.0730 148.450 TC 35 997 13 95
1961003S19147 1961 3 SP EA NOT_NAMED 1961-01-03 11:00:00 TS -19.1157 148.999 997 bom main 124 124 P_____O__P__P_ SH111961 -19.1498 149.005 -1 -19.1000 149.000 997 -19.0874 149.017 TC 34 997 -19.0914 148.966 TC 35 997 13 95
1961003S19147 1961 3 SP EA NOT_NAMED 1961-01-03 12:00:00 TS -19.1356 149.209 main 137 137 O_____P__O__O_ jtwc_sh SH111961 -19.2000 149.200 -1 -19.0781 149.245 996 -19.1000 149.200 TC 35 997 -19.1000 149.200 TC 35 997 11 97
1961003S19147 1961 3 SP EA NOT_NAMED 1961-01-03 15:00:00 TS -19.2017 149.770 main 161 161 P_____P__P__P_ SH111961 -19.3426 149.830 -1 -19.0919 149.741 996 -19.1344 149.713 TC 35 996 -19.0970 149.738 TC 35 996 10 100
1961003S19147 1961 3 SP EA NOT_NAMED 1961-01-03 17:00:00 TS -19.2902 150.106 996 bom main 176 176 P_____O__P__P_ SH111961 -19.4443 150.223 -1 -19.2000 150.000 996 -19.2190 150.038 TC 35 996 -19.1431 150.047 TC 35 996 10 108
1961003S19147 1961 3 SP EA NOT_NAMED 1961-01-03 18:00:00 TS -19.3539 150.273 main 186 186 O_____P__O__O_ jtwc_sh SH111961 -19.5000 150.400 -1 -19.2697 150.167 996 -19.3000 150.200 TC 35 996 -19.2000 150.200 TC 35 996 10 117
1961003S19147 1961 3 SP EA NOT_NAMED 1961-01-03 21:00:00 TS -19.6052 150.750 main 222 217 P_____P__P__P_ SH111961 -19.6098 150.846 -1 -19.6241 150.667 996 -19.7023 150.693 TC 35 996 -19.4799 150.700 TC 35 996 11 126
1961003S19147 1961 3 SP EA NOT_NAMED 1961-01-03 23:00:00 TS -19.8832 151.048 997 bom main 229 229 P_____O__P__P_ SH111961 -19.7678 151.089 -1 -20.0000 151.000 997 -20.0837 151.028 TC 35 996 -19.7969 151.034 TC 35 996 13 138
1961003S19147 1961 3 SP EA NOT_NAMED 1961-01-04 00:00:00 TS -20.0711 151.191 main 236 201 O_____P__O__O_ jtwc_sh SH111961 -19.9000 151.200 -1 -20.2553 151.153 996 -20.3000 151.200 TC 35 997 -20.0000 151.200 TC 35 997 17 152
1961003S19147 1961 3 SP EA NOT_NAMED 1961-01-04 03:00:00 TS -20.8708 151.612 main 191 166 P_____P__P__P_ SH111961 -20.6349 151.522 -1 -21.1551 151.627 996 -21.0797 151.727 TC 35 996 -20.8495 151.662 TC 35 996 18 154
1961003S19147 1961 3 SP EA NOT_NAMED 1961-01-04 05:00:00 TS -21.4155 151.906 996 bom main 166 159 P_____O__P__P_ SH111961 -21.1725 151.711 -1 -21.7000 152.000 996 -21.5881 152.102 TC 35 996 -21.4441 152.005 TC 35 996 18 151
1961003S19147 1961 3 SP EA NOT_NAMED 1961-01-04 06:00:00 TS -21.6438 152.069 main 167 161 O_____P__O__O_ jtwc_sh SH111961 -21.4000 151.800 -1 -21.9192 152.247 996 -21.8000 152.300 TC 35 996 -21.7000 152.200 TC 35 996 15 136
1961003S19147 1961 3 SP EA NOT_NAMED 1961-01-04 09:00:00 TS -22.1173 152.627 main 190 190 P_____P__P__P_ SH111961 -21.8423 152.043 -1 -22.3857 153.051 996 -22.2505 153.010 TC 35 996 -22.2659 152.987 TC 35 996 12 127
1961003S19147 1961 3 SP EA NOT_NAMED 1961-01-04 11:00:00 TS -22.2626 152.969 996 bom main 227 227 P_____O__P__P_ SH111961 -21.9806 152.208 -1 -22.5000 153.500 996 -22.3867 153.435 TC 35 996 -22.4649 153.494 TC 35 996 10 110
1961003S19147 1961 3 SP EA NOT_NAMED 1961-01-04 12:00:00 TS -22.2781 153.112 main 237 237 O_____P__O__O_ jtwc_sh SH111961 -22.0000 152.300 -1 -22.4905 153.662 995 -22.4000 153.600 TC 35 996 -22.5000 153.700 TC 35 996 7 71
1961003S19147 1961 3 SP EA NOT_NAMED 1961-01-04 15:00:00 TS -22.1132 153.445 main 271 271 P_____P__P__P_ SH111961 -21.8751 152.658 -1 -22.2369 153.952 995 -22.2320 153.871 TC 37 995 -22.3470 154.086 TC 37 995 7 49
1961003S19147 1961 3 SP EA NOT_NAMED 1961-01-04 17:00:00 TS -21.9030 153.578 995 bom main 295 295 P_____O__P__P_ SH111961 -21.6930 152.895 -1 -22.0000 154.000 995 -22.0120 153.911 TC 39 995 -22.1172 154.189 TC 39 995 7 27
1961003S19147 1961 3 SP EA NOT_NAMED 1961-01-04 18:00:00 TS -21.8031 153.620 main 298 298 O_____P__O__O_ jtwc_sh SH111961 -21.6000 153.000 -1 -21.9154 153.999 995 -21.9000 153.900 TC 40 995 -22.0000 154.200 TC 40 995 5 12
1961003S19147 1961 3 SP EA NOT_NAMED 1961-01-04 21:00:00 TS -21.5673 153.657 main 315 309 P_____P__P__P_ SH111961 -21.3924 153.260 -1 -21.6629 153.854 995 -21.6464 153.802 TC 40 995 -21.7425 154.110 TC 40 995 5 357
1961003S19147 1961 3 SP EA NOT_NAMED 1961-01-04 23:00:00 TS -21.4160 153.616 995 bom main 313 313 P_____O__P__P_ SH111961 -21.2609 153.370 -1 -21.5000 153.700 995 -21.4806 153.671 TC 40 995 -21.5776 153.971 TC 40 995 5 344
1961003S19147 1961 3 SP EA NOT_NAMED 1961-01-05 00:00:00 TS -21.3451 153.590 main 318 314 O_____P__O__O_ jtwc_sh SH111961 -21.2000 153.400 -1 -21.4253 153.650 -21.4000 153.600 TC 40 995 -21.5000 153.900 TC 40 995 4 338
1961003S19147 1961 3 SP EA NOT_NAMED 1961-01-05 03:00:00 TS -21.1548 153.502 main 314 310 P_____P__P__P_ SH111961 -21.0425 153.395 -1 -21.2190 153.501 -21.1850 153.459 TC -21.2850 153.758 TC 40 994 4 331
1961003S19147 1961 3 SP EA NOT_NAMED 1961-01-05 06:00:00 TS -20.9854 153.375 main 316 312 O_____P__P__O_ jtwc_sh SH111961 -20.9000 153.300 -1 -21.0336 153.351 -20.9934 153.321 TC -21.1000 153.600 TC 40 994 4 324
1961003S19147 1961 3 SP EA NOT_NAMED 1961-01-05 09:00:00 TS -20.8258 153.239 main 312 311 P_____P__P__P_ SH111961 -20.7500 153.208 -1 -20.8613 153.198 -20.8175 153.182 TC -20.9500 153.400 TC 40 994 4 321
1961003S19147 1961 3 SP EA NOT_NAMED 1961-01-05 12:00:00 TS -20.6687 153.096 main 311 311 O_____P__P__O_ jtwc_sh SH111961 -20.6000 153.100 -1 -20.6942 153.041 -20.6495 153.037 TC -20.8000 153.200 TC 40 994 4 321
1961003S19147 1961 3 SP EA NOT_NAMED 1961-01-05 15:00:00 TS -20.5027 152.963 main 318 311 P_____P__P__P_ SH111961 -20.4500 153.008 -1 -20.5245 152.877 -20.4815 152.881 TC -20.6075 153.043 TC 40 993 4 323
1961003S19147 1961 3 SP EA NOT_NAMED 1961-01-05 18:00:00 TS -20.3301 152.823 main 320 320 O_____P__P__O_ jtwc_sh SH111961 -20.3000 152.900 -1 -20.3444 152.706 -20.3059 152.709 TC -20.4000 152.900 TC 40 993 4 322
1961003S19147 1961 3 SP EA NOT_NAMED 1961-01-05 21:00:00 TS -20.1536 152.669 main 321 321 P_____P__P__P_ SH111961 -20.1500 152.773 -1 -20.1462 152.526 -20.1146 152.517 TC -20.2075 152.758 TC 40 993 5 320
1961003S19147 1961 3 SP EA NOT_NAMED 1961-01-05 23:00:00 TS -20.0294 152.552 993 bom main 332 326 P_____O__P__P_ SH111961 -20.0500 152.664 -1 -20.0000 152.400 993 4 -19.9746 152.375 TC -20.0724 152.656 TC 40 993 5 319
1961003S19147 1961 3 SP EA NOT_NAMED 1961-01-06 00:00:00 TS -19.9625 152.491 main 326 326 O_____P__O__O_ jtwc_sh SH111961 -20.0000 152.600 -1 -19.9123 152.356 993 -19.9000 152.300 TC 40 993 -20.0000 152.600 TC 40 993 6 319
1961003S19147 1961 3 SP EA NOT_NAMED 1961-01-06 03:00:00 TS -19.7490 152.293 main 344 339 P_____P__P__P_ SH111961 -19.8575 152.373 -1 -19.6515 152.187 994 -19.6362 152.081 TC 37 994 -19.7423 152.453 TC 37 994 6 315
1961003S19147 1961 3 SP EA NOT_NAMED 1961-01-06 05:00:00 TS -19.6116 152.119 996 bom main 345 336 P_____O__P__P_ SH111961 -19.7557 152.194 -1 -19.5000 152.000 996 -19.4723 151.903 TC 35 995 -19.5744 152.304 TC 35 995 7 307
1961003S19147 1961 3 SP EA NOT_NAMED 1961-01-06 06:00:00 TS -19.5484 152.011 main 342 307 O_____P__O__O_ jtwc_sh SH111961 -19.7000 152.100 -1 -19.4418 151.855 996 -19.4000 151.800 TC 35 996 -19.5000 152.200 TC 35 996 8 295
1961003S19147 1961 3 SP EA NOT_NAMED 1961-01-06 09:00:00 TS -19.3866 151.615 main 307 293 P_____P__P__P_ SH111961 -19.5076 151.792 -1 -19.2985 151.329 997 -19.2298 151.427 TC 35 997 -19.3505 151.685 TC 35 997 8 293
1961003S19147 1961 3 SP EA NOT_NAMED 1961-01-06 11:00:00 TS -19.2813 151.354 998 bom main 293 279 P_____O__P__P_ SH111961 -19.3693 151.591 -1 -19.2000 151.000 998 -19.1414 151.145 TC 35 997 -19.2564 151.337 TC 35 997 8 294
1961003S19147 1961 3 SP EA NOT_NAMED 1961-01-06 12:00:00 TS -19.2178 151.219 main 279 266 O_____P__O__O_ jtwc_sh SH111961 -19.3000 151.500 -1 -19.1418 150.870 998 -19.1000 151.000 TC 35 998 -19.2000 151.200 TC 35 998 7 309
1961003S19147 1961 3 SP EA NOT_NAMED 1961-01-06 15:00:00 TS -18.9974 150.980 main 272 270 P_____P_____P_ SH111961 -19.0975 151.277 -1 -18.9301 150.622 998 TC -18.9648 151.040 TC 32 998 6 326
1961003S19147 1961 3 SP EA NOT_NAMED 1961-01-06 18:00:00 TS -18.7363 150.869 main 283 275 O_____P_____O_ jtwc_sh SH111961 -18.9000 151.100 -1 -18.6756 150.540 999 -18.7000 151.000 TC 30 999 6 341
1961003S19147 1961 3 SP EA NOT_NAMED 1961-01-06 21:00:00 TS -18.4248 150.776 main 298 298 ______P_____P_ SH111961 -1 -18.3944 150.560 999 -18.4451 150.920 TC 30 999 6 347
1961003S19147 1961 3 SP EA NOT_NAMED 1961-01-06 23:00:00 TS -18.2542 150.761 1000 bom main 306 306 ______O_____P_ SH111961 -1 -18.2000 150.600 1000 -18.2812 150.842 TC 30 999 5 0
1961003S19147 1961 3 SP EA NOT_NAMED 1961-01-07 00:00:00 TS -18.2000 150.800 main 315 ____________O_ -1 -18.2000 150.800 TC 30 1000 4 38

Digital Typhoon Data and Search

About IBTrACS Database

This database is a web-friendly format of International Best Track Archive for Climate Stewardship (IBTrACS), a global best track data archive curated by NOAA dating back to 1842.

Updated: 2021-11-26